createdAt,value
2019-05-20T00:00:23.255Z,98.10
2019-05-20T00:02:52.684Z,98.10
2019-05-20T00:05:21.952Z,98.10
2019-05-20T00:07:51.277Z,98.00
2019-05-20T00:10:20.830Z,98.20
2019-05-20T00:12:50.780Z,98.30
2019-05-20T00:15:20.348Z,98.30
2019-05-20T00:17:49.652Z,98.10
2019-05-20T00:20:19.030Z,97.90
2019-05-20T00:22:48.419Z,97.90
2019-05-20T00:25:17.778Z,98.00
2019-05-20T00:27:47.672Z,98.00
2019-05-20T00:30:17.092Z,98.00
2019-05-20T00:32:46.987Z,98.00
2019-05-20T00:35:16.583Z,98.00
2019-05-20T00:37:46.154Z,98.00
2019-05-20T00:40:15.840Z,98.20
2019-05-20T00:42:45.185Z,98.10
2019-05-20T00:45:16.469Z,97.90
2019-05-20T00:47:46.122Z,98.20
2019-05-20T00:50:15.450Z,98.40
2019-05-20T00:52:45.323Z,98.50
2019-05-20T00:55:27.170Z,98.90
2019-05-20T00:57:56.727Z,98.60
2019-05-20T01:00:26.415Z,98.70
2019-05-20T01:02:57.226Z,98.80
2019-05-20T01:05:26.817Z,98.80
2019-05-20T01:07:59.082Z,98.80
2019-05-20T01:10:28.739Z,98.80
2019-05-20T01:12:58.468Z,98.80
2019-05-20T01:15:28.153Z,98.70
2019-05-20T01:17:58.131Z,98.70
2019-05-20T01:20:27.486Z,98.50
2019-05-20T01:22:57.046Z,98.30
2019-05-20T01:25:26.338Z,98.30
2019-05-20T01:27:55.659Z,98.20
2019-05-20T01:30:25.437Z,98.20
2019-05-20T01:32:54.837Z,98.20
2019-05-20T01:35:24.189Z,98.40
2019-05-20T01:37:53.928Z,98.10
2019-05-20T01:40:23.518Z,98.20
2019-05-20T01:42:52.806Z,98.20
2019-05-20T01:45:22.629Z,98.00
2019-05-20T01:47:51.912Z,98.10
2019-05-20T01:50:21.298Z,97.30
2019-05-20T01:52:50.907Z,97.20
2019-05-20T01:55:20.551Z,97.20
2019-05-20T01:57:49.900Z,97.30
2019-05-20T02:00:19.341Z,97.40
2019-05-20T02:02:48.643Z,97.60
2019-05-20T02:05:18.345Z,97.80
2019-05-20T02:07:48.039Z,97.90
2019-05-20T02:10:17.839Z,97.80
2019-05-20T02:12:47.136Z,97.90
2019-05-20T02:15:23.593Z,97.90
2019-05-20T02:17:52.880Z,98.00
2019-05-20T02:20:22.187Z,98.00
2019-05-20T02:22:51.479Z,98.10
2019-05-20T02:25:20.734Z,98.00
2019-05-20T02:27:50.349Z,98.10
2019-05-20T02:30:19.676Z,98.10
2019-05-20T02:32:49.356Z,98.10
2019-05-20T02:35:18.959Z,98.20
2019-05-20T02:37:48.327Z,98.40
2019-05-20T02:40:17.720Z,98.60
2019-05-20T02:42:47.385Z,98.80
2019-05-20T02:45:17.012Z,98.80
2019-05-20T02:47:46.424Z,99.10
2019-05-20T02:50:16.689Z,99.20
2019-05-20T02:52:46.158Z,99.70
2019-05-20T02:55:15.877Z,99.80
2019-05-20T02:57:45.148Z,99.90
2019-05-20T03:00:14.587Z,99.90
2019-05-20T03:02:43.993Z,99.90
2019-05-20T03:05:13.362Z,99.90
2019-05-20T03:07:42.672Z,99.90
2019-05-20T03:10:12.052Z,99.90
2019-05-20T03:12:41.354Z,99.90
2019-05-20T03:15:10.933Z,99.90
2019-05-20T03:17:40.241Z,99.90
2019-05-20T03:20:09.629Z,99.80
2019-05-20T03:22:38.931Z,99.70
2019-05-20T03:25:09.471Z,99.70
2019-05-20T03:27:39.172Z,99.70
2019-05-20T03:30:09.063Z,99.60
2019-05-20T03:32:38.896Z,99.60
2019-05-20T03:35:08.360Z,99.70
2019-05-20T03:37:37.774Z,99.70
2019-05-20T03:40:07.912Z,99.50
2019-05-20T03:42:37.520Z,99.50
2019-05-20T03:45:07.129Z,99.30
2019-05-20T03:47:36.852Z,99.00
2019-05-20T03:50:06.803Z,99.00
2019-05-20T03:52:36.497Z,99.00
2019-05-20T03:55:06.463Z,99.10
2019-05-20T03:57:36.024Z,99.10
2019-05-20T04:00:06.232Z,99.20
2019-05-20T04:02:35.614Z,99.20
2019-05-20T04:05:06.210Z,99.00
2019-05-20T04:07:35.573Z,99.00
2019-05-20T04:10:05.262Z,99.00
2019-05-20T04:12:34.648Z,99.00
2019-05-20T04:15:04.078Z,98.90
2019-05-20T04:17:33.679Z,98.90
2019-05-20T04:20:03.067Z,98.90
2019-05-20T04:22:32.350Z,98.70
2019-05-20T04:25:01.643Z,98.80
2019-05-20T04:27:34.176Z,98.80
2019-05-20T04:30:03.483Z,98.90
2019-05-20T04:32:32.807Z,98.60
2019-05-20T04:35:20.396Z,98.50
2019-05-20T04:37:34.216Z,98.30
2019-05-20T04:40:03.543Z,98.30
2019-05-20T04:42:33.142Z,98.40
2019-05-20T04:45:02.419Z,98.20
2019-05-20T04:47:31.719Z,98.30
2019-05-20T04:50:01.408Z,98.20
2019-05-20T04:52:30.968Z,98.20
2019-05-20T04:55:00.263Z,98.20
2019-05-20T04:57:29.947Z,98.00
2019-05-20T05:00:00.854Z,98.10
2019-05-20T05:02:30.576Z,98.20
2019-05-20T05:05:00.235Z,97.70
2019-05-20T05:07:29.529Z,97.70
2019-05-20T05:09:59.127Z,97.50
2019-05-20T05:12:28.771Z,97.50
2019-05-20T05:14:58.079Z,97.50
2019-05-20T05:17:27.392Z,97.50
2019-05-20T05:19:57.289Z,97.60
2019-05-20T05:22:26.599Z,97.60
2019-05-20T05:24:55.920Z,97.50
2019-05-20T05:27:25.277Z,97.40
2019-05-20T05:29:54.574Z,97.40
2019-05-20T05:32:42.548Z,97.30
2019-05-20T05:35:14.247Z,97.20
2019-05-20T05:37:43.557Z,97.20
2019-05-20T05:40:14.389Z,97.00
2019-05-20T05:42:43.661Z,97.30
2019-05-20T05:45:13.392Z,96.60
2019-05-20T05:47:42.964Z,97.00
2019-05-20T05:50:12.380Z,96.70
2019-05-20T05:52:41.987Z,96.60
2019-05-20T05:55:13.174Z,96.40
2019-05-20T05:57:42.793Z,96.30
2019-05-20T06:00:12.191Z,96.30
2019-05-20T06:02:42.662Z,95.90
2019-05-20T06:05:12.060Z,96.30
2019-05-20T06:07:41.713Z,95.90
2019-05-20T06:10:11.341Z,95.90
2019-05-20T06:12:40.752Z,95.90
2019-05-20T06:15:10.563Z,95.90
2019-05-20T06:17:40.238Z,96.00
2019-05-20T06:20:10.050Z,96.00
2019-05-20T06:22:39.752Z,95.80
2019-05-20T06:25:09.355Z,95.90
2019-05-20T06:27:38.748Z,96.00
2019-05-20T06:30:09.523Z,95.80
2019-05-20T06:32:39.031Z,95.30
2019-05-20T06:35:08.884Z,95.50
2019-05-20T06:37:40.918Z,95.30
2019-05-20T06:40:10.711Z,95.30
2019-05-20T06:42:40.442Z,94.90
2019-05-20T06:45:10.095Z,94.70
2019-05-20T06:47:39.807Z,94.50
2019-05-20T06:50:10.221Z,94.60
2019-05-20T06:52:39.598Z,94.50
2019-05-20T06:55:09.389Z,94.40
2019-05-20T06:57:38.726Z,94.20
2019-05-20T07:00:09.163Z,94.40
2019-05-20T07:02:38.722Z,94.40
2019-05-20T07:05:08.822Z,94.50
2019-05-20T07:07:38.107Z,94.70
2019-05-20T07:10:07.701Z,94.50
2019-05-20T07:12:41.091Z,94.30
2019-05-20T07:15:08.549Z,94.10
2019-05-20T07:17:37.820Z,94.20
2019-05-20T07:20:07.679Z,94.30
2019-05-20T07:22:54.492Z,94.30
2019-05-20T07:25:08.391Z,94.40
2019-05-20T07:27:37.684Z,94.40
2019-05-20T07:30:07.565Z,94.30
2019-05-20T07:32:36.892Z,94.20
2019-05-20T07:35:06.447Z,94.20
2019-05-20T07:37:35.780Z,93.90
2019-05-20T07:40:05.966Z,94.00
2019-05-20T07:42:35.706Z,94.10
2019-05-20T07:45:05.458Z,93.80
2019-05-20T07:47:35.841Z,93.30
2019-05-20T07:50:05.328Z,93.20
2019-05-20T07:52:35.342Z,93.00
2019-05-20T07:55:05.137Z,92.80
2019-05-20T07:57:37.220Z,93.00
2019-05-20T08:00:06.757Z,93.10
2019-05-20T08:02:36.495Z,93.20
2019-05-20T08:05:06.798Z,93.20
2019-05-20T08:07:51.222Z,93.40
2019-05-20T08:10:09.655Z,93.40
2019-05-20T08:12:39.060Z,93.40
2019-05-20T08:15:08.683Z,93.30
2019-05-20T08:17:38.043Z,93.30
2019-05-20T08:20:07.681Z,93.10
2019-05-20T08:22:37.042Z,93.10
2019-05-20T08:25:07.006Z,93.00
2019-05-20T08:27:36.374Z,93.20
2019-05-20T08:30:06.535Z,93.10
2019-05-20T08:32:36.493Z,93.00
2019-05-20T08:35:06.029Z,92.90
2019-05-20T08:37:45.496Z,92.80
2019-05-20T08:40:07.077Z,92.60
2019-05-20T08:42:36.457Z,92.20
2019-05-20T08:45:05.985Z,92.00
2019-05-20T08:47:35.362Z,91.80
2019-05-20T08:50:08.855Z,91.70
2019-05-20T08:52:36.547Z,91.90
2019-05-20T08:55:06.008Z,91.90
2019-05-20T08:57:35.569Z,92.00
2019-05-20T09:00:05.398Z,91.80
2019-05-20T09:02:35.135Z,91.40
2019-05-20T09:05:04.536Z,91.50
2019-05-20T09:07:34.184Z,90.90
2019-05-20T09:10:03.607Z,90.90
2019-05-20T09:12:33.392Z,91.10
2019-05-20T09:15:02.758Z,90.90
2019-05-20T09:17:32.132Z,90.90
2019-05-20T09:20:02.112Z,91.20
2019-05-20T09:22:31.478Z,91.60
2019-05-20T09:25:01.262Z,91.50
2019-05-20T09:27:30.708Z,91.70
2019-05-20T09:30:00.082Z,91.80
2019-05-20T09:32:29.709Z,92.10
2019-05-20T09:34:59.187Z,92.20
2019-05-20T09:37:28.778Z,92.20
2019-05-20T09:39:58.703Z,92.40
2019-05-20T09:42:28.486Z,92.20
2019-05-20T09:45:02.748Z,92.20
2019-05-20T09:47:29.171Z,92.00
2019-05-20T09:49:58.816Z,91.80
2019-05-20T09:52:28.411Z,91.50
2019-05-20T09:54:57.683Z,91.40
2019-05-20T09:57:30.000Z,91.30
2019-05-20T09:59:59.357Z,91.30
2019-05-20T10:02:37.668Z,91.10
2019-05-20T10:05:02.349Z,91.10
2019-05-20T10:07:32.155Z,90.80
2019-05-20T10:10:02.090Z,90.90
2019-05-20T10:12:45.120Z,90.80
2019-05-20T10:15:02.832Z,90.20
2019-05-20T10:17:32.394Z,89.70
2019-05-20T10:20:01.676Z,89.70
2019-05-20T10:22:31.021Z,89.80
2019-05-20T10:25:00.312Z,89.10
2019-05-20T10:27:29.676Z,87.60
2019-05-20T10:29:59.079Z,87.90
2019-05-20T10:32:28.402Z,87.70
2019-05-20T10:34:57.706Z,88.00
2019-05-20T10:37:26.975Z,88.10
2019-05-20T10:39:56.264Z,87.60
2019-05-20T10:42:25.517Z,87.50
2019-05-20T10:44:55.108Z,88.20
2019-05-20T10:47:24.380Z,88.30
2019-05-20T10:49:53.774Z,89.20
2019-05-20T10:52:23.392Z,89.00
2019-05-20T10:54:52.950Z,89.60
2019-05-20T10:57:22.297Z,89.80
2019-05-20T10:59:51.570Z,90.10
2019-05-20T11:02:20.899Z,90.10
2019-05-20T11:04:50.214Z,90.40
2019-05-20T11:07:19.603Z,89.90
2019-05-20T11:09:49.311Z,90.00
2019-05-20T11:12:18.887Z,89.60
2019-05-20T11:14:48.213Z,89.80
2019-05-20T11:17:17.858Z,89.90
2019-05-20T11:19:47.241Z,90.00
2019-05-20T11:22:16.611Z,89.60
2019-05-20T11:24:46.282Z,89.00
2019-05-20T11:27:15.578Z,89.00
2019-05-20T11:29:45.303Z,88.90
2019-05-20T11:32:14.930Z,88.60
2019-05-20T11:34:44.224Z,88.30
2019-05-20T11:37:13.810Z,88.80
2019-05-20T11:39:43.471Z,89.30
2019-05-20T11:42:12.736Z,88.80
2019-05-20T11:44:42.016Z,89.30
2019-05-20T11:47:11.602Z,88.80
2019-05-20T11:49:41.603Z,88.90
2019-05-20T11:52:11.002Z,89.10
2019-05-20T11:54:40.588Z,88.90
2019-05-20T11:57:10.176Z,88.30
2019-05-20T11:59:39.736Z,88.10
2019-05-20T12:02:09.179Z,87.40
2019-05-20T12:04:38.750Z,87.80
2019-05-20T12:07:08.682Z,88.00
2019-05-20T12:09:48.950Z,87.40
2019-05-20T12:12:09.723Z,87.60
2019-05-20T12:14:39.484Z,87.70
2019-05-20T12:17:09.132Z,87.20
2019-05-20T12:19:38.971Z,86.90
2019-05-20T12:22:08.363Z,86.30
2019-05-20T12:24:37.665Z,86.50
2019-05-20T12:27:07.271Z,86.30
2019-05-20T12:29:36.920Z,86.00
2019-05-20T12:32:06.587Z,85.90
2019-05-20T12:34:36.115Z,85.80
2019-05-20T12:37:05.489Z,85.80
2019-05-20T12:39:34.844Z,85.30
2019-05-20T12:42:04.252Z,85.00
2019-05-20T12:44:33.712Z,85.20
2019-05-20T12:47:02.995Z,85.00
2019-05-20T12:49:32.360Z,84.90
2019-05-20T12:52:01.805Z,84.90
2019-05-20T12:54:31.116Z,84.90
2019-05-20T12:57:00.397Z,85.00
2019-05-20T12:59:29.787Z,84.80
2019-05-20T13:01:59.340Z,85.40
2019-05-20T13:04:28.665Z,85.50
2019-05-20T13:06:57.926Z,85.40
2019-05-20T13:09:27.851Z,86.20
2019-05-20T13:11:57.471Z,86.20
2019-05-20T13:14:26.782Z,86.10
2019-05-20T13:16:56.601Z,86.00
2019-05-20T13:19:25.888Z,86.60
2019-05-20T13:21:55.212Z,86.20
2019-05-20T13:24:24.821Z,85.90
2019-05-20T13:26:54.137Z,85.70
2019-05-20T13:29:23.736Z,85.90
2019-05-20T13:31:53.152Z,85.50
2019-05-20T13:34:22.432Z,86.00
2019-05-20T13:36:51.798Z,86.40
2019-05-20T13:39:21.403Z,86.50
2019-05-20T13:41:50.974Z,86.60
2019-05-20T13:44:21.450Z,86.30
2019-05-20T13:46:50.753Z,86.30
2019-05-20T13:49:20.338Z,86.00
2019-05-20T13:51:49.867Z,86.60
2019-05-20T13:54:19.563Z,86.50
2019-05-20T13:56:48.853Z,86.40
2019-05-20T13:59:18.512Z,86.10
2019-05-20T14:01:47.882Z,85.60
2019-05-20T14:04:17.204Z,85.60
2019-05-20T14:06:46.474Z,85.50
2019-05-20T14:09:15.762Z,84.80
2019-05-20T14:11:45.367Z,84.20
2019-05-20T14:14:14.656Z,84.00
2019-05-20T14:16:43.931Z,84.00
2019-05-20T14:19:13.711Z,83.90
2019-05-20T14:21:43.080Z,84.50
2019-05-20T14:24:12.403Z,84.90
2019-05-20T14:26:42.032Z,85.00
2019-05-20T14:29:11.704Z,84.70
2019-05-20T14:31:41.361Z,84.60
2019-05-20T14:34:10.676Z,84.90
2019-05-20T14:36:43.130Z,85.00
2019-05-20T14:39:12.557Z,85.00
2019-05-20T14:41:42.269Z,85.60
2019-05-20T14:44:11.844Z,86.10
2019-05-20T14:46:41.124Z,86.40
2019-05-20T14:49:10.501Z,86.90
2019-05-20T14:51:39.840Z,87.10
2019-05-20T14:54:09.752Z,87.10
2019-05-20T14:56:39.174Z,87.30
2019-05-20T14:59:08.571Z,87.70
2019-05-20T15:01:37.968Z,87.70
2019-05-20T15:04:07.330Z,87.70
2019-05-20T15:06:37.311Z,87.90
2019-05-20T15:09:07.031Z,88.00
2019-05-20T15:11:38.535Z,87.70
2019-05-20T15:14:07.948Z,87.80
2019-05-20T15:16:37.293Z,87.90
2019-05-20T15:19:06.906Z,87.80
2019-05-20T15:21:36.455Z,87.90
2019-05-20T15:24:06.039Z,87.90
2019-05-20T15:26:35.395Z,87.90
2019-05-20T15:29:05.663Z,87.80
2019-05-20T15:31:35.540Z,87.40
2019-05-20T15:34:05.128Z,87.20
2019-05-20T15:39:00.315Z,87.40
2019-05-20T15:41:29.723Z,87.20
2019-05-20T15:43:59.053Z,87.10
2019-05-20T15:46:28.417Z,86.90
2019-05-20T15:48:57.799Z,87.10
2019-05-20T15:51:27.187Z,87.40
2019-05-20T15:53:57.083Z,87.50
2019-05-20T15:56:27.062Z,87.90
2019-05-20T15:58:56.720Z,87.60
2019-05-20T16:01:26.459Z,87.50
2019-05-20T16:03:56.077Z,87.50
2019-05-20T16:06:25.527Z,87.20
2019-05-20T16:08:55.263Z,87.10
2019-05-20T16:11:24.649Z,87.10
2019-05-20T16:13:53.969Z,87.20
2019-05-20T16:16:23.387Z,86.90
2019-05-20T16:18:52.738Z,86.80
2019-05-20T16:21:22.147Z,86.70
2019-05-20T16:23:51.547Z,86.70
2019-05-20T16:26:20.954Z,86.70
2019-05-20T16:28:50.239Z,86.70
2019-05-20T16:31:20.255Z,86.80
2019-05-20T16:33:50.597Z,86.70
2019-05-20T16:36:20.058Z,86.40
2019-05-20T16:38:49.661Z,86.30
2019-05-20T16:41:19.292Z,86.70
2019-05-20T16:43:48.822Z,87.60
2019-05-20T16:46:18.524Z,88.70
2019-05-20T16:48:47.881Z,89.30
2019-05-20T16:51:17.463Z,89.30
2019-05-20T16:53:46.775Z,89.60
2019-05-20T16:56:16.079Z,89.40
2019-05-20T16:58:45.755Z,89.30
2019-05-20T17:01:15.152Z,89.30
2019-05-20T17:03:44.866Z,88.90
2019-05-20T17:06:14.527Z,88.90
2019-05-20T17:08:44.292Z,88.90
2019-05-20T17:11:13.608Z,88.50
2019-05-20T17:13:42.945Z,88.60
2019-05-20T17:16:12.577Z,88.10
2019-05-20T17:18:42.010Z,88.10
2019-05-20T17:21:11.846Z,88.20
2019-05-20T17:23:41.145Z,88.10
2019-05-20T17:26:10.430Z,88.00
2019-05-20T17:28:40.020Z,88.20
2019-05-20T17:31:10.040Z,87.90
2019-05-20T17:33:39.683Z,87.90
2019-05-20T17:36:08.998Z,88.10
2019-05-20T17:38:38.603Z,87.90
2019-05-20T17:41:08.579Z,88.00
2019-05-20T17:43:38.165Z,88.00
2019-05-20T17:46:07.468Z,88.00
2019-05-20T17:48:36.881Z,88.20
2019-05-20T17:51:06.267Z,88.00
2019-05-20T17:53:35.889Z,88.30
2019-05-20T17:56:05.299Z,88.20
2019-05-20T17:58:37.322Z,88.30
2019-05-20T18:01:15.430Z,88.50
2019-05-20T18:03:37.253Z,88.40
2019-05-20T18:06:06.618Z,88.30
2019-05-20T18:08:39.307Z,88.40
2019-05-20T18:11:08.975Z,88.70
2019-05-20T18:13:38.886Z,88.80
2019-05-20T18:16:08.188Z,88.60
2019-05-20T18:18:37.760Z,89.40
2019-05-20T18:21:07.456Z,88.80
2019-05-20T18:23:37.051Z,89.00
2019-05-20T18:26:06.343Z,89.20
2019-05-20T18:28:35.980Z,89.40
2019-05-20T18:31:05.607Z,89.40
2019-05-20T18:33:35.187Z,89.40
2019-05-20T18:36:04.620Z,89.40
2019-05-20T18:38:33.892Z,89.80
2019-05-20T18:41:03.212Z,89.90
2019-05-20T18:43:32.485Z,90.10
2019-05-20T18:46:01.895Z,90.10
2019-05-20T18:48:31.174Z,90.20
2019-05-20T18:51:00.461Z,90.20
2019-05-20T18:53:29.932Z,90.30
2019-05-20T18:55:59.492Z,90.30
2019-05-20T18:58:28.893Z,90.30
2019-05-20T19:00:58.431Z,90.40
2019-05-20T19:03:28.452Z,90.40
2019-05-20T19:05:58.363Z,90.30
2019-05-20T19:08:27.747Z,90.40
2019-05-20T19:10:57.631Z,90.40
2019-05-20T19:13:27.433Z,90.40
2019-05-20T19:15:56.996Z,90.30
2019-05-20T19:18:26.639Z,90.30
2019-05-20T19:20:55.931Z,90.30
2019-05-20T19:23:25.278Z,90.30
2019-05-20T19:25:55.012Z,90.40
2019-05-20T19:28:24.323Z,90.40
2019-05-20T19:30:53.626Z,90.40
2019-05-20T19:33:23.718Z,90.50
2019-05-20T19:35:53.074Z,90.50
2019-05-20T19:38:22.756Z,90.50
2019-05-20T19:40:52.452Z,90.50
2019-05-20T19:43:21.840Z,90.60
2019-05-20T19:45:51.469Z,90.60
2019-05-20T19:48:20.807Z,90.70
2019-05-20T19:50:50.134Z,90.80
2019-05-20T19:53:19.699Z,90.80
2019-05-20T19:55:49.050Z,90.90
2019-05-20T19:58:18.480Z,90.90
2019-05-20T20:00:48.084Z,90.90
2019-05-20T20:03:17.735Z,91.00
2019-05-20T20:05:47.057Z,91.00
2019-05-20T20:08:16.676Z,91.00
2019-05-20T20:10:46.035Z,91.00
2019-05-20T20:13:15.672Z,90.90
2019-05-20T20:15:45.225Z,90.90
2019-05-20T20:18:15.345Z,90.90
2019-05-20T20:20:44.724Z,90.90
2019-05-20T20:23:14.122Z,90.90
2019-05-20T20:25:43.452Z,91.00
2019-05-20T20:28:13.253Z,91.00
2019-05-20T20:30:42.957Z,91.00
2019-05-20T20:33:13.947Z,91.00
2019-05-20T20:35:43.978Z,91.20
2019-05-20T20:38:13.298Z,91.20
2019-05-20T20:40:42.673Z,91.30
2019-05-20T20:43:12.043Z,91.30
2019-05-20T20:45:41.963Z,91.30
2019-05-20T20:48:12.101Z,91.30
2019-05-20T20:50:41.707Z,91.30
2019-05-20T20:53:11.032Z,91.30
2019-05-20T20:55:40.777Z,91.30
2019-05-20T20:58:10.299Z,91.40
2019-05-20T21:00:39.884Z,91.40
2019-05-20T21:03:09.443Z,91.50
2019-05-20T21:05:42.161Z,91.60
2019-05-20T21:08:11.767Z,91.80
2019-05-20T21:10:41.139Z,91.80
2019-05-20T21:13:11.218Z,91.80
2019-05-20T21:15:40.760Z,91.90
2019-05-20T21:18:10.084Z,91.90
2019-05-20T21:20:40.011Z,92.10
2019-05-20T21:23:09.606Z,92.10
2019-05-20T21:25:39.187Z,92.20
2019-05-20T21:28:08.736Z,92.30
2019-05-20T21:30:38.843Z,92.40
2019-05-20T21:33:09.717Z,92.60
2019-05-20T21:35:40.113Z,92.80
2019-05-20T21:38:09.494Z,93.10
2019-05-20T21:40:39.160Z,93.30
2019-05-20T21:43:08.444Z,93.60
2019-05-20T21:45:37.760Z,93.90
2019-05-20T21:48:08.247Z,94.30
2019-05-20T21:50:37.950Z,94.50
2019-05-20T21:53:07.543Z,94.80
2019-05-20T21:55:37.229Z,95.20
2019-05-20T21:58:06.859Z,95.30
2019-05-20T22:00:46.108Z,95.40
2019-05-20T22:03:25.529Z,95.50
2019-05-20T22:05:55.276Z,95.70
2019-05-20T22:08:24.628Z,95.90
2019-05-20T22:10:54.298Z,96.00
2019-05-20T22:13:23.584Z,96.20
2019-05-20T22:15:56.238Z,96.50
2019-05-20T22:18:25.549Z,96.70
2019-05-20T22:20:54.960Z,96.90
2019-05-20T22:23:43.209Z,97.30
2019-05-20T22:26:12.554Z,97.40
2019-05-20T22:28:42.511Z,97.50
2019-05-20T22:31:11.834Z,97.70
2019-05-20T22:33:42.754Z,97.80
2019-05-20T22:36:14.053Z,98.00
2019-05-20T22:38:43.720Z,98.10
2019-05-20T22:41:13.059Z,98.20
2019-05-20T22:43:42.380Z,98.20
2019-05-20T22:46:11.880Z,98.20
2019-05-20T22:48:41.483Z,98.30
2019-05-20T22:51:11.086Z,98.50
2019-05-20T22:53:40.487Z,98.30
2019-05-20T22:56:09.852Z,98.30
2019-05-20T22:58:39.567Z,98.30
2019-05-20T23:01:09.159Z,98.60
2019-05-20T23:03:38.759Z,98.70
2019-05-20T23:06:08.334Z,98.90
2019-05-20T23:08:38.240Z,98.70
2019-05-20T23:11:07.867Z,98.70
2019-05-20T23:13:37.550Z,98.80
2019-05-20T23:16:07.180Z,98.80
2019-05-20T23:18:36.785Z,98.90
2019-05-20T23:21:06.269Z,98.70
2019-05-20T23:23:35.798Z,99.00
2019-05-20T23:26:05.167Z,98.90
2019-05-20T23:28:34.608Z,99.00
2019-05-20T23:31:04.862Z,98.80
2019-05-20T23:33:34.173Z,98.70
2019-05-20T23:36:03.489Z,98.70
2019-05-20T23:38:32.812Z,98.70
2019-05-20T23:41:04.240Z,98.60
2019-05-20T23:43:33.871Z,98.70
2019-05-20T23:46:03.147Z,98.50
2019-05-20T23:48:32.707Z,98.70
2019-05-20T23:51:02.290Z,99.10
2019-05-20T23:53:31.836Z,99.20
2019-05-20T23:56:01.401Z,99.40
2019-05-20T23:58:31.037Z,99.40
